sensor_id;sensor_type;location;lat;lon;timestamp;noise_LAeq;noise_LA_min;noise_LA_max;noise_LA01;noise_LA95
43787;Laerm;29409;49.306;8.500;2023-12-20T00:00:29;41.12;38.52;51.26;;
43787;Laerm;29409;49.306;8.500;2023-12-20T00:01:29;41.14;38.52;50.45;;
43787;Laerm;29409;49.306;8.500;2023-12-20T00:02:29;41.70;39.46;49.77;;
43787;Laerm;29409;49.306;8.500;2023-12-20T00:03:30;41.88;39.70;50.59;;
43787;Laerm;29409;49.306;8.500;2023-12-20T00:04:30;41.90;39.46;49.33;;
43787;Laerm;29409;49.306;8.500;2023-12-20T00:05:31;41.79;38.81;52.63;;
43787;Laerm;29409;49.306;8.500;2023-12-20T00:06:35;40.93;38.81;53.73;;
43787;Laerm;29409;49.306;8.500;2023-12-20T00:07:35;40.76;37.12;48.29;;
43787;Laerm;29409;49.306;8.500;2023-12-20T00:08:35;40.57;38.37;50.53;;
43787;Laerm;29409;49.306;8.500;2023-12-20T00:09:36;40.50;37.70;45.96;;
43787;Laerm;29409;49.306;8.500;2023-12-20T00:10:37;41.09;38.37;53.72;;
43787;Laerm;29409;49.306;8.500;2023-12-20T00:11:37;41.18;38.81;47.20;;
43787;Laerm;29409;49.306;8.500;2023-12-20T00:12:38;41.70;39.21;49.28;;
43787;Laerm;29409;49.306;8.500;2023-12-20T00:13:38;41.62;39.21;48.76;;
43787;Laerm;29409;49.306;8.500;2023-12-20T00:14:38;41.87;39.21;49.65;;
43787;Laerm;29409;49.306;8.500;2023-12-20T00:15:39;42.30;39.92;50.09;;
43787;Laerm;29409;49.306;8.500;2023-12-20T00:16:39;42.11;39.92;51.88;;
43787;Laerm;29409;49.306;8.500;2023-12-20T00:17:39;42.48;40.43;50.08;;
43787;Laerm;29409;49.306;8.500;2023-12-20T00:18:39;42.80;40.98;49.95;;
43787;Laerm;29409;49.306;8.500;2023-12-20T00:19:40;42.66;40.71;52.32;;
43787;Laerm;29409;49.306;8.500;2023-12-20T00:20:40;42.45;39.81;49.70;;
43787;Laerm;29409;49.306;8.500;2023-12-20T00:21:40;42.49;39.34;51.79;;
43787;Laerm;29409;49.306;8.500;2023-12-20T00:22:41;42.54;40.43;50.71;;
43787;Laerm;29409;49.306;8.500;2023-12-20T00:23:41;44.07;40.80;52.72;;
43787;Laerm;29409;49.306;8.500;2023-12-20T00:24:41;43.47;41.38;51.66;;
43787;Laerm;29409;49.306;8.500;2023-12-20T00:25:42;43.95;41.89;53.82;;
43787;Laerm;29409;49.306;8.500;2023-12-20T00:26:42;43.13;41.19;51.84;;
43787;Laerm;29409;49.306;8.500;2023-12-20T00:27:42;43.00;41.14;50.47;;
43787;Laerm;29409;49.306;8.500;2023-12-20T00:28:43;43.06;41.22;50.77;;
43787;Laerm;29409;49.306;8.500;2023-12-20T00:29:43;43.69;41.53;51.22;;
43787;Laerm;29409;49.306;8.500;2023-12-20T00:30:48;44.04;41.96;50.60;;
43787;Laerm;29409;49.306;8.500;2023-12-20T00:31:49;44.30;42.35;51.62;;
43787;Laerm;29409;49.306;8.500;2023-12-20T00:32:49;44.35;41.82;51.17;;
43787;Laerm;29409;49.306;8.500;2023-12-20T00:33:49;43.97;41.68;54.76;;
43787;Laerm;29409;49.306;8.500;2023-12-20T00:34:50;43.59;41.61;50.60;;
43787;Laerm;29409;49.306;8.500;2023-12-20T00:35:50;42.74;40.53;49.40;;
43787;Laerm;29409;49.306;8.500;2023-12-20T00:36:52;42.32;39.70;50.44;;
43787;Laerm;29409;49.306;8.500;2023-12-20T00:37:52;42.35;40.43;49.10;;
43787;Laerm;29409;49.306;8.500;2023-12-20T00:38:52;42.18;40.23;47.55;;
43787;Laerm;29409;49.306;8.500;2023-12-20T00:39:54;41.97;39.70;51.72;;
43787;Laerm;29409;49.306;8.500;2023-12-20T00:40:54;42.15;39.92;58.49;;
43787;Laerm;29409;49.306;8.500;2023-12-20T00:41:55;42.60;40.13;55.90;;
43787;Laerm;29409;49.306;8.500;2023-12-20T00:42:55;42.25;40.13;50.31;;
43787;Laerm;29409;49.306;8.500;2023-12-20T00:43:55;42.32;40.43;52.11;;
43787;Laerm;29409;49.306;8.500;2023-12-20T00:44:56;42.50;40.33;52.15;;
43787;Laerm;29409;49.306;8.500;2023-12-20T00:45:56;42.62;40.71;48.83;;
43787;Laerm;29409;49.306;8.500;2023-12-20T00:46:57;42.57;40.62;53.74;;
43787;Laerm;29409;49.306;8.500;2023-12-20T00:47:59;42.45;40.53;50.40;;
43787;Laerm;29409;49.306;8.500;2023-12-20T00:49:00;42.57;40.62;53.37;;
43787;Laerm;29409;49.306;8.500;2023-12-20T00:50:00;45.04;40.43;60.84;;
43787;Laerm;29409;49.306;8.500;2023-12-20T00:51:00;42.41;40.23;52.17;;
43787;Laerm;29409;49.306;8.500;2023-12-20T00:52:01;42.70;40.80;51.31;;
43787;Laerm;29409;49.306;8.500;2023-12-20T00:53:02;42.52;40.13;50.44;;
43787;Laerm;29409;49.306;8.500;2023-12-20T00:54:03;42.06;39.92;50.40;;
43787;Laerm;29409;49.306;8.500;2023-12-20T00:55:03;41.64;39.58;51.09;;
43787;Laerm;29409;49.306;8.500;2023-12-20T00:56:04;41.61;39.57;51.33;;
43787;Laerm;29409;49.306;8.500;2023-12-20T00:57:04;41.80;39.34;49.64;;
43787;Laerm;29409;49.306;8.500;2023-12-20T00:58:04;41.94;39.34;51.26;;
43787;Laerm;29409;49.306;8.500;2023-12-20T00:59:05;44.40;42.41;50.87;;
43787;Laerm;29409;49.306;8.500;2023-12-20T01:00:05;43.88;41.14;53.50;;
43787;Laerm;29409;49.306;8.500;2023-12-20T01:01:06;42.90;40.71;51.84;;
43787;Laerm;29409;49.306;8.500;2023-12-20T01:02:06;42.60;40.71;52.68;;
43787;Laerm;29409;49.306;8.500;2023-12-20T01:03:06;42.62;40.33;52.93;;
43787;Laerm;29409;49.306;8.500;2023-12-20T01:04:07;41.90;39.34;53.20;;
43787;Laerm;29409;49.306;8.500;2023-12-20T01:05:07;41.45;38.67;51.82;;
43787;Laerm;29409;49.306;8.500;2023-12-20T01:06:09;41.15;38.81;49.07;;
43787;Laerm;29409;49.306;8.500;2023-12-20T01:07:09;41.46;38.81;50.94;;
43787;Laerm;29409;49.306;8.500;2023-12-20T01:08:09;41.31;38.37;50.85;;
43787;Laerm;29409;49.306;8.500;2023-12-20T01:09:10;41.26;38.21;50.21;;
43787;Laerm;29409;49.306;8.500;2023-12-20T01:10:10;40.98;38.05;50.40;;
43787;Laerm;29409;49.306;8.500;2023-12-20T01:11:11;40.85;38.21;48.87;;
43787;Laerm;29409;49.306;8.500;2023-12-20T01:12:11;41.04;38.05;49.88;;
43787;Laerm;29409;49.306;8.500;2023-12-20T01:13:11;40.85;37.88;53.28;;
43787;Laerm;29409;49.306;8.500;2023-12-20T01:14:13;40.82;38.37;49.30;;
43787;Laerm;29409;49.306;8.500;2023-12-20T01:15:13;41.04;38.37;52.09;;
43787;Laerm;29409;49.306;8.500;2023-12-20T01:16:13;41.02;38.52;49.80;;
43787;Laerm;29409;49.306;8.500;2023-12-20T01:17:14;41.90;38.37;52.10;;
43787;Laerm;29409;49.306;8.500;2023-12-20T01:18:14;41.18;38.52;51.37;;
43787;Laerm;29409;49.306;8.500;2023-12-20T01:19:15;41.32;39.08;48.45;;
43787;Laerm;29409;49.306;8.500;2023-12-20T01:20:16;41.66;38.52;51.71;;
43787;Laerm;29409;49.306;8.500;2023-12-20T01:21:19;41.86;39.81;51.44;;
43787;Laerm;29409;49.306;8.500;2023-12-20T01:22:21;57.61;37.87;89.94;;
43787;Laerm;29409;49.306;8.500;2023-12-20T01:23:21;42.33;40.13;55.75;;
43787;Laerm;29409;49.306;8.500;2023-12-20T01:24:21;42.41;39.81;53.24;;
43787;Laerm;29409;49.306;8.500;2023-12-20T01:25:22;42.54;40.23;51.46;;
43787;Laerm;29409;49.306;8.500;2023-12-20T01:26:22;42.34;39.70;55.59;;
43787;Laerm;29409;49.306;8.500;2023-12-20T01:27:22;42.40;39.70;61.30;;
43787;Laerm;29409;49.306;8.500;2023-12-20T01:28:24;43.51;39.81;56.61;;
43787;Laerm;29409;49.306;8.500;2023-12-20T01:29:27;48.03;41.06;61.24;;
43787;Laerm;29409;49.306;8.500;2023-12-20T01:30:27;42.23;40.13;50.68;;
43787;Laerm;29409;49.306;8.500;2023-12-20T01:31:27;41.98;39.81;50.23;;
43787;Laerm;29409;49.306;8.500;2023-12-20T01:32:28;41.82;39.23;49.89;;
43787;Laerm;29409;49.306;8.500;2023-12-20T01:33:29;42.05;39.78;51.26;;
43787;Laerm;29409;49.306;8.500;2023-12-20T01:34:29;42.38;40.43;53.30;;
43787;Laerm;29409;49.306;8.500;2023-12-20T01:35:29;42.34;39.70;51.87;;
43787;Laerm;29409;49.306;8.500;2023-12-20T01:36:30;42.73;40.71;50.59;;
43787;Laerm;29409;49.306;8.500;2023-12-20T01:37:30;42.44;40.43;50.23;;
43787;Laerm;29409;49.306;8.500;2023-12-20T01:38:31;42.62;40.43;51.86;;
43787;Laerm;29409;49.306;8.500;2023-12-20T01:39:31;42.15;39.70;48.90;;
43787;Laerm;29409;49.306;8.500;2023-12-20T01:40:31;41.64;39.58;48.10;;
43787;Laerm;29409;49.306;8.500;2023-12-20T01:41:32;42.23;39.34;49.78;;
43787;Laerm;29409;49.306;8.500;2023-12-20T01:42:32;42.07;38.95;58.63;;
43787;Laerm;29409;49.306;8.500;2023-12-20T01:43:33;41.86;39.58;51.55;;
43787;Laerm;29409;49.306;8.500;2023-12-20T01:44:33;41.75;39.34;49.40;;
43787;Laerm;29409;49.306;8.500;2023-12-20T01:45:34;41.49;39.34;51.15;;
43787;Laerm;29409;49.306;8.500;2023-12-20T01:46:34;41.83;39.21;50.62;;
43787;Laerm;29409;49.306;8.500;2023-12-20T01:47:34;40.99;38.81;46.45;;
43787;Laerm;29409;49.306;8.500;2023-12-20T01:48:35;40.99;38.21;48.20;;
43787;Laerm;29409;49.306;8.500;2023-12-20T01:49:35;41.12;38.52;49.30;;
43787;Laerm;29409;49.306;8.500;2023-12-20T01:50:36;41.10;37.88;48.74;;
43787;Laerm;29409;49.306;8.500;2023-12-20T01:51:37;41.19;39.08;51.62;;
43787;Laerm;29409;49.306;8.500;2023-12-20T01:52:37;41.05;38.05;50.67;;
43787;Laerm;29409;49.306;8.500;2023-12-20T01:53:38;41.20;38.87;50.94;;
43787;Laerm;29409;49.306;8.500;2023-12-20T01:54:39;46.70;38.95;74.54;;
43787;Laerm;29409;49.306;8.500;2023-12-20T01:55:40;41.11;38.37;49.02;;
43787;Laerm;29409;49.306;8.500;2023-12-20T01:56:42;41.28;38.95;50.34;;
43787;Laerm;29409;49.306;8.500;2023-12-20T01:57:42;41.32;37.52;50.68;;
43787;Laerm;29409;49.306;8.500;2023-12-20T01:58:43;41.22;38.81;49.81;;
43787;Laerm;29409;49.306;8.500;2023-12-20T01:59:44;41.38;38.52;50.98;;
43787;Laerm;29409;49.306;8.500;2023-12-20T02:00:45;41.36;39.21;51.10;;
43787;Laerm;29409;49.306;8.500;2023-12-20T02:01:45;41.11;38.67;48.76;;
43787;Laerm;29409;49.306;8.500;2023-12-20T02:02:47;40.99;38.67;50.70;;
43787;Laerm;29409;49.306;8.500;2023-12-20T02:03:47;41.30;38.95;51.75;;
43787;Laerm;29409;49.306;8.500;2023-12-20T02:04:48;41.18;38.95;49.53;;
43787;Laerm;29409;49.306;8.500;2023-12-20T02:05:51;41.33;39.08;50.62;;
43787;Laerm;29409;49.306;8.500;2023-12-20T02:06:52;41.06;38.81;48.26;;
43787;Laerm;29409;49.306;8.500;2023-12-20T02:07:52;41.20;38.52;50.43;;
43787;Laerm;29409;49.306;8.500;2023-12-20T02:08:53;40.75;38.05;47.42;;
43787;Laerm;29409;49.306;8.500;2023-12-20T02:09:53;41.27;38.21;49.11;;
43787;Laerm;29409;49.306;8.500;2023-12-20T02:10:54;41.46;39.34;49.43;;
43787;Laerm;29409;49.306;8.500;2023-12-20T02:11:54;41.66;39.08;51.15;;
43787;Laerm;29409;49.306;8.500;2023-12-20T02:12:55;41.64;39.34;60.33;;
43787;Laerm;29409;49.306;8.500;2023-12-20T02:13:55;44.89;38.95;66.87;;
43787;Laerm;29409;49.306;8.500;2023-12-20T02:14:55;43.83;40.03;65.53;;
43787;Laerm;29409;49.306;8.500;2023-12-20T02:15:56;41.71;39.08;48.28;;
43787;Laerm;29409;49.306;8.500;2023-12-20T02:16:56;44.43;39.34;57.95;;
43787;Laerm;29409;49.306;8.500;2023-12-20T02:17:56;41.62;39.46;50.96;;
43787;Laerm;29409;49.306;8.500;2023-12-20T02:18:57;41.35;38.99;49.21;;
43787;Laerm;29409;49.306;8.500;2023-12-20T02:19:57;41.63;38.81;50.96;;
43787;Laerm;29409;49.306;8.500;2023-12-20T02:20:58;42.13;39.81;50.13;;
43787;Laerm;29409;49.306;8.500;2023-12-20T02:22:08;42.82;39.81;49.71;;
43787;Laerm;29409;49.306;8.500;2023-12-20T02:23:12;42.66;40.43;48.43;;
43787;Laerm;29409;49.306;8.500;2023-12-20T02:24:13;42.85;40.43;48.83;;
43787;Laerm;29409;49.306;8.500;2023-12-20T02:25:13;43.09;40.43;52.67;;
43787;Laerm;29409;49.306;8.500;2023-12-20T02:26:13;42.71;40.43;52.61;;
43787;Laerm;29409;49.306;8.500;2023-12-20T02:27:14;42.80;40.13;50.85;;
43787;Laerm;29409;49.306;8.500;2023-12-20T02:28:15;42.81;40.71;50.95;;
43787;Laerm;29409;49.306;8.500;2023-12-20T02:29:16;42.58;40.53;49.41;;
43787;Laerm;29409;49.306;8.500;2023-12-20T02:30:16;42.74;40.23;52.43;;
43787;Laerm;29409;49.306;8.500;2023-12-20T02:31:16;42.61;40.43;53.41;;
43787;Laerm;29409;49.306;8.500;2023-12-20T02:32:20;42.33;40.23;50.24;;
43787;Laerm;29409;49.306;8.500;2023-12-20T02:33:21;42.71;40.03;51.36;;
43787;Laerm;29409;49.306;8.500;2023-12-20T02:34:21;41.83;39.46;51.16;;
43787;Laerm;29409;49.306;8.500;2023-12-20T02:35:22;41.79;39.70;49.58;;
43787;Laerm;29409;49.306;8.500;2023-12-20T02:36:22;42.17;39.92;47.50;;
43787;Laerm;29409;49.306;8.500;2023-12-20T02:37:22;41.88;39.92;52.43;;
43787;Laerm;29409;49.306;8.500;2023-12-20T02:38:22;42.04;39.81;50.82;;
43787;Laerm;29409;49.306;8.500;2023-12-20T02:39:23;42.00;39.81;48.37;;
43787;Laerm;29409;49.306;8.500;2023-12-20T02:40:23;41.71;39.70;48.91;;
43787;Laerm;29409;49.306;8.500;2023-12-20T02:41:25;41.65;39.08;48.39;;
43787;Laerm;29409;49.306;8.500;2023-12-20T02:42:26;41.54;39.34;49.40;;
43787;Laerm;29409;49.306;8.500;2023-12-20T02:43:26;41.54;39.46;48.36;;
43787;Laerm;29409;49.306;8.500;2023-12-20T02:44:27;41.68;39.70;54.19;;
43787;Laerm;29409;49.306;8.500;2023-12-20T02:45:27;42.24;39.92;49.24;;
43787;Laerm;29409;49.306;8.500;2023-12-20T02:46:27;41.99;40.23;49.41;;
43787;Laerm;29409;49.306;8.500;2023-12-20T02:47:28;42.09;39.81;50.62;;
43787;Laerm;29409;49.306;8.500;2023-12-20T02:48:29;41.64;39.70;49.69;;
43787;Laerm;29409;49.306;8.500;2023-12-20T02:49:31;41.94;39.81;52.14;;
43787;Laerm;29409;49.306;8.500;2023-12-20T02:50:31;42.15;39.92;49.70;;
43787;Laerm;29409;49.306;8.500;2023-12-20T02:51:31;42.27;40.13;50.69;;
43787;Laerm;29409;49.306;8.500;2023-12-20T02:52:31;41.90;39.70;51.69;;
43787;Laerm;29409;49.306;8.500;2023-12-20T02:53:32;42.03;39.70;49.80;;
43787;Laerm;29409;49.306;8.500;2023-12-20T02:54:32;41.92;38.81;53.62;;
43787;Laerm;29409;49.306;8.500;2023-12-20T02:55:32;41.59;39.21;52.79;;
43787;Laerm;29409;49.306;8.500;2023-12-20T02:56:33;40.88;38.67;49.67;;
43787;Laerm;29409;49.306;8.500;2023-12-20T02:57:33;40.73;37.88;49.02;;
43787;Laerm;29409;49.306;8.500;2023-12-20T02:58:36;41.12;38.52;50.93;;
43787;Laerm;29409;49.306;8.500;2023-12-20T02:59:36;41.16;38.21;46.50;;
43787;Laerm;29409;49.306;8.500;2023-12-20T03:00:36;41.17;38.05;50.01;;
43787;Laerm;29409;49.306;8.500;2023-12-20T03:01:41;41.09;38.02;53.33;;
43787;Laerm;29409;49.306;8.500;2023-12-20T03:02:42;40.95;38.21;48.39;;
43787;Laerm;29409;49.306;8.500;2023-12-20T03:03:42;41.18;38.37;44.43;;
43787;Laerm;29409;49.306;8.500;2023-12-20T03:04:43;40.63;38.21;51.87;;
43787;Laerm;29409;49.306;8.500;2023-12-20T03:05:43;40.52;37.88;50.19;;
43787;Laerm;29409;49.306;8.500;2023-12-20T03:06:43;40.70;37.88;47.18;;
43787;Laerm;29409;49.306;8.500;2023-12-20T03:07:43;40.78;37.88;49.40;;
43787;Laerm;29409;49.306;8.500;2023-12-20T03:08:45;40.65;37.88;47.42;;
43787;Laerm;29409;49.306;8.500;2023-12-20T03:09:46;40.92;38.05;43.14;;
43787;Laerm;29409;49.306;8.500;2023-12-20T03:10:47;40.91;38.05;50.61;;
43787;Laerm;29409;49.306;8.500;2023-12-20T03:11:50;40.33;37.70;43.68;;
43787;Laerm;29409;49.306;8.500;2023-12-20T03:12:51;40.35;37.32;47.57;;
43787;Laerm;29409;49.306;8.500;2023-12-20T03:13:52;40.21;36.91;43.72;;
43787;Laerm;29409;49.306;8.500;2023-12-20T03:14:52;40.31;37.12;45.99;;
43787;Laerm;29409;49.306;8.500;2023-12-20T03:15:52;40.26;36.69;47.16;;
43787;Laerm;29409;49.306;8.500;2023-12-20T03:16:53;40.28;37.12;42.41;;
43787;Laerm;29409;49.306;8.500;2023-12-20T03:17:53;40.30;37.52;46.18;;
43787;Laerm;29409;49.306;8.500;2023-12-20T03:18:53;40.31;36.20;49.44;;
43787;Laerm;29409;49.306;8.500;2023-12-20T03:19:54;40.13;35.94;45.11;;
43787;Laerm;29409;49.306;8.500;2023-12-20T03:20:54;40.19;37.52;43.60;;
43787;Laerm;29409;49.306;8.500;2023-12-20T03:21:54;40.22;36.69;42.47;;
43787;Laerm;29409;49.306;8.500;2023-12-20T03:22:55;40.24;37.32;47.08;;
43787;Laerm;29409;49.306;8.500;2023-12-20T03:23:55;40.67;37.32;48.21;;
43787;Laerm;29409;49.306;8.500;2023-12-20T03:24:55;40.75;36.20;43.68;;
43787;Laerm;29409;49.306;8.500;2023-12-20T03:25:56;40.96;38.37;43.09;;
43787;Laerm;29409;49.306;8.500;2023-12-20T03:26:56;40.88;37.88;43.44;;
43787;Laerm;29409;49.306;8.500;2023-12-20T03:27:56;40.68;37.12;42.98;;
43787;Laerm;29409;49.306;8.500;2023-12-20T03:28:57;40.71;37.70;42.88;;
43787;Laerm;29409;49.306;8.500;2023-12-20T03:29:57;41.28;38.67;44.03;;
43787;Laerm;29409;49.306;8.500;2023-12-20T03:30:57;41.32;38.21;43.49;;
43787;Laerm;29409;49.306;8.500;2023-12-20T03:31:58;41.23;38.21;44.31;;
43787;Laerm;29409;49.306;8.500;2023-12-20T03:32:58;40.86;38.52;42.82;;
43787;Laerm;29409;49.306;8.500;2023-12-20T03:33:58;41.16;38.05;43.34;;
43787;Laerm;29409;49.306;8.500;2023-12-20T03:34:59;41.18;37.17;43.81;;
43787;Laerm;29409;49.306;8.500;2023-12-20T03:35:59;40.68;37.52;43.04;;
43787;Laerm;29409;49.306;8.500;2023-12-20T03:36:59;40.80;38.18;43.04;;
43787;Laerm;29409;49.306;8.500;2023-12-20T03:37:59;40.98;38.21;43.09;;
43787;Laerm;29409;49.306;8.500;2023-12-20T03:39:00;41.04;38.05;43.34;;
43787;Laerm;29409;49.306;8.500;2023-12-20T03:40:00;41.14;38.52;43.44;;
43787;Laerm;29409;49.306;8.500;2023-12-20T03:41:02;41.07;38.05;43.19;;
43787;Laerm;29409;49.306;8.500;2023-12-20T03:42:02;40.97;37.12;46.18;;
43787;Laerm;29409;49.306;8.500;2023-12-20T03:43:02;41.00;38.52;43.68;;
43787;Laerm;29409;49.306;8.500;2023-12-20T03:44:03;40.74;37.12;43.39;;
43787;Laerm;29409;49.306;8.500;2023-12-20T03:45:03;40.85;37.88;44.43;;
43787;Laerm;29409;49.306;8.500;2023-12-20T03:46:04;40.70;37.70;43.49;;
43787;Laerm;29409;49.306;8.500;2023-12-20T03:47:04;40.87;37.70;42.82;;
43787;Laerm;29409;49.306;8.500;2023-12-20T03:48:06;40.90;38.05;42.98;;
43787;Laerm;29409;49.306;8.500;2023-12-20T03:49:09;40.91;38.21;43.58;;
43787;Laerm;29409;49.306;8.500;2023-12-20T03:50:09;41.04;37.88;43.90;;
43787;Laerm;29409;49.306;8.500;2023-12-20T03:51:09;40.87;38.02;44.58;;
43787;Laerm;29409;49.306;8.500;2023-12-20T03:52:11;41.12;37.88;45.94;;
43787;Laerm;29409;49.306;8.500;2023-12-20T03:53:12;40.63;38.05;43.19;;
43787;Laerm;29409;49.306;8.500;2023-12-20T03:54:12;40.40;38.21;42.22;;
43787;Laerm;29409;49.306;8.500;2023-12-20T03:55:12;40.55;37.88;42.71;;
43787;Laerm;29409;49.306;8.500;2023-12-20T03:56:14;40.75;37.88;43.94;;
43787;Laerm;29409;49.306;8.500;2023-12-20T03:57:14;40.64;38.21;43.14;;
43787;Laerm;29409;49.306;8.500;2023-12-20T03:58:14;41.06;38.18;46.95;;
43787;Laerm;29409;49.306;8.500;2023-12-20T03:59:15;40.30;37.32;42.65;;
43787;Laerm;29409;49.306;8.500;2023-12-20T04:00:16;40.40;37.32;43.86;;
43787;Laerm;29409;49.306;8.500;2023-12-20T04:01:17;40.65;38.18;42.93;;
43787;Laerm;29409;49.306;8.500;2023-12-20T04:02:18;40.54;37.70;42.35;;
43787;Laerm;29409;49.306;8.500;2023-12-20T04:03:18;40.66;37.52;43.14;;
43787;Laerm;29409;49.306;8.500;2023-12-20T04:04:18;40.57;37.32;42.53;;
43787;Laerm;29409;49.306;8.500;2023-12-20T04:05:22;40.57;37.70;42.88;;
43787;Laerm;29409;49.306;8.500;2023-12-20T04:06:22;40.65;37.52;42.93;;
43787;Laerm;29409;49.306;8.500;2023-12-20T04:07:22;40.94;37.52;44.76;;
43787;Laerm;29409;49.306;8.500;2023-12-20T04:08:23;40.69;37.52;42.59;;
43787;Laerm;29409;49.306;8.500;2023-12-20T04:09:24;40.96;37.88;44.39;;
43787;Laerm;29409;49.306;8.500;2023-12-20T04:10:25;40.84;37.52;45.27;;
43787;Laerm;29409;49.306;8.500;2023-12-20T04:11:25;40.73;37.12;43.68;;
43787;Laerm;29409;49.306;8.500;2023-12-20T04:12:26;41.68;37.88;44.87;;
43787;Laerm;29409;49.306;8.500;2023-12-20T04:13:27;41.49;38.67;47.90;;
43787;Laerm;29409;49.306;8.500;2023-12-20T04:14:27;40.91;38.05;44.97;;
43787;Laerm;29409;49.306;8.500;2023-12-20T04:15:28;40.58;37.70;43.44;;
43787;Laerm;29409;49.306;8.500;2023-12-20T04:16:29;41.11;36.91;46.55;;
43787;Laerm;29409;49.306;8.500;2023-12-20T04:17:29;40.80;37.88;42.53;;
43787;Laerm;29409;49.306;8.500;2023-12-20T04:18:29;41.11;38.05;44.83;;
43787;Laerm;29409;49.306;8.500;2023-12-20T04:19:32;41.68;38.81;45.07;;
43787;Laerm;29409;49.306;8.500;2023-12-20T04:20:32;40.83;37.70;42.76;;
43787;Laerm;29409;49.306;8.500;2023-12-20T04:21:32;40.72;37.52;43.09;;
43787;Laerm;29409;49.306;8.500;2023-12-20T04:22:32;40.81;37.88;43.39;;
43787;Laerm;29409;49.306;8.500;2023-12-20T04:23:34;41.01;37.32;47.32;;
43787;Laerm;29409;49.306;8.500;2023-12-20T04:24:34;41.37;38.52;44.76;;
43787;Laerm;29409;49.306;8.500;2023-12-20T04:25:35;41.79;38.67;44.94;;
43787;Laerm;29409;49.306;8.500;2023-12-20T04:26:35;41.70;37.88;50.72;;
43787;Laerm;29409;49.306;8.500;2023-12-20T04:27:35;41.76;37.88;46.87;;
43787;Laerm;29409;49.306;8.500;2023-12-20T04:28:36;41.38;37.88;47.54;;
43787;Laerm;29409;49.306;8.500;2023-12-20T04:29:37;40.86;38.05;44.15;;
43787;Laerm;29409;49.306;8.500;2023-12-20T04:30:37;40.73;37.88;45.54;;
43787;Laerm;29409;49.306;8.500;2023-12-20T04:31:38;40.75;38.37;43.90;;
43787;Laerm;29409;49.306;8.500;2023-12-20T04:32:38;41.50;38.37;46.05;;
43787;Laerm;29409;49.306;8.500;2023-12-20T04:33:38;42.09;38.05;46.95;;
43787;Laerm;29409;49.306;8.500;2023-12-20T04:34:39;43.51;39.34;54.95;;
43787;Laerm;29409;49.306;8.500;2023-12-20T04:35:39;42.48;38.52;51.04;;
43787;Laerm;29409;49.306;8.500;2023-12-20T04:36:42;40.85;38.37;43.72;;
43787;Laerm;29409;49.306;8.500;2023-12-20T04:37:42;41.67;38.60;48.54;;
43787;Laerm;29409;49.306;8.500;2023-12-20T04:38:42;46.22;38.60;59.86;;
43787;Laerm;29409;49.306;8.500;2023-12-20T04:39:43;41.59;38.37;47.16;;
43787;Laerm;29409;49.306;8.500;2023-12-20T04:40:43;41.42;38.95;44.58;;
43787;Laerm;29409;49.306;8.500;2023-12-20T04:41:43;41.49;38.37;48.20;;
43787;Laerm;29409;49.306;8.500;2023-12-20T04:42:44;41.35;38.67;44.90;;
43787;Laerm;29409;49.306;8.500;2023-12-20T04:43:44;42.06;39.46;48.12;;
43787;Laerm;29409;49.306;8.500;2023-12-20T04:44:44;42.49;39.34;45.33;;
43787;Laerm;29409;49.306;8.500;2023-12-20T04:45:45;41.76;39.34;43.72;;
43787;Laerm;29409;49.306;8.500;2023-12-20T04:46:45;41.91;39.08;46.33;;
43787;Laerm;29409;49.306;8.500;2023-12-20T04:47:45;41.44;38.21;46.05;;
43787;Laerm;29409;49.306;8.500;2023-12-20T04:48:53;41.39;38.67;45.33;;
43787;Laerm;29409;49.306;8.500;2023-12-20T04:49:54;42.15;38.99;49.30;;
43787;Laerm;29409;49.306;8.500;2023-12-20T04:50:54;41.02;38.37;42.88;;
43787;Laerm;29409;49.306;8.500;2023-12-20T04:51:54;41.24;38.95;43.39;;
43787;Laerm;29409;49.306;8.500;2023-12-20T04:52:55;42.85;39.57;47.24;;
43787;Laerm;29409;49.306;8.500;2023-12-20T04:53:55;41.85;39.34;49.15;;
43787;Laerm;29409;49.306;8.500;2023-12-20T04:54:56;42.10;39.34;45.14;;
43787;Laerm;29409;49.306;8.500;2023-12-20T04:55:56;42.71;39.92;46.91;;
43787;Laerm;29409;49.306;8.500;2023-12-20T04:56:56;41.71;39.21;45.17;;
43787;Laerm;29409;49.306;8.500;2023-12-20T04:57:57;41.28;38.81;49.08;;
43787;Laerm;29409;49.306;8.500;2023-12-20T04:58:57;41.44;39.08;45.48;;
43787;Laerm;29409;49.306;8.500;2023-12-20T04:59:59;42.69;39.21;49.79;;
43787;Laerm;29409;49.306;8.500;2023-12-20T05:00:59;41.66;38.81;46.33;;
43787;Laerm;29409;49.306;8.500;2023-12-20T05:01:59;43.03;40.62;48.99;;
43787;Laerm;29409;49.306;8.500;2023-12-20T05:03:00;43.01;40.03;46.59;;
43787;Laerm;29409;49.306;8.500;2023-12-20T05:04:00;42.85;39.70;47.36;;
43787;Laerm;29409;49.306;8.500;2023-12-20T05:05:01;41.95;39.58;45.69;;
43787;Laerm;29409;49.306;8.500;2023-12-20T05:06:01;41.65;39.23;47.86;;
43787;Laerm;29409;49.306;8.500;2023-12-20T05:07:01;42.59;39.81;47.70;;
43787;Laerm;29409;49.306;8.500;2023-12-20T05:08:01;42.35;39.46;45.33;;
43787;Laerm;29409;49.306;8.500;2023-12-20T05:09:02;41.97;38.81;46.07;;
43787;Laerm;29409;49.306;8.500;2023-12-20T05:10:03;42.00;39.34;45.60;;
43787;Laerm;29409;49.306;8.500;2023-12-20T05:11:04;42.71;39.92;51.26;;
43787;Laerm;29409;49.306;8.500;2023-12-20T05:12:04;42.13;40.03;43.86;;
43787;Laerm;29409;49.306;8.500;2023-12-20T05:13:05;42.43;40.13;44.31;;
43787;Laerm;29409;49.306;8.500;2023-12-20T05:14:06;43.15;40.43;50.28;;
43787;Laerm;29409;49.306;8.500;2023-12-20T05:15:07;43.16;40.13;47.70;;
43787;Laerm;29409;49.306;8.500;2023-12-20T05:16:07;43.06;40.53;47.24;;
43787;Laerm;29409;49.306;8.500;2023-12-20T05:17:09;44.23;41.30;50.32;;
43787;Laerm;29409;49.306;8.500;2023-12-20T05:18:09;42.72;40.23;45.04;;
43787;Laerm;29409;49.306;8.500;2023-12-20T05:19:10;43.09;40.43;46.25;;
43787;Laerm;29409;49.306;8.500;2023-12-20T05:20:10;42.60;39.21;47.06;;
43787;Laerm;29409;49.306;8.500;2023-12-20T05:21:10;42.16;39.70;43.77;;
43787;Laerm;29409;49.306;8.500;2023-12-20T05:22:11;42.28;40.33;46.50;;
43787;Laerm;29409;49.306;8.500;2023-12-20T05:23:11;42.31;40.13;44.80;;
43787;Laerm;29409;49.306;8.500;2023-12-20T05:24:13;43.02;40.89;48.05;;
43787;Laerm;29409;49.306;8.500;2023-12-20T05:25:13;42.93;40.13;47.02;;
43787;Laerm;29409;49.306;8.500;2023-12-20T05:26:15;42.59;40.03;45.30;;
43787;Laerm;29409;49.306;8.500;2023-12-20T05:27:15;42.21;39.92;44.11;;
43787;Laerm;29409;49.306;8.500;2023-12-20T05:28:15;42.75;39.92;51.47;;
43787;Laerm;29409;49.306;8.500;2023-12-20T05:29:15;42.49;40.03;45.51;;
43787;Laerm;29409;49.306;8.500;2023-12-20T05:30:17;42.43;40.23;44.80;;
43787;Laerm;29409;49.306;8.500;2023-12-20T05:31:17;45.01;39.92;56.17;;
43787;Laerm;29409;49.306;8.500;2023-12-20T05:32:20;44.01;40.13;52.21;;
43787;Laerm;29409;49.306;8.500;2023-12-20T05:33:21;42.97;40.98;46.93;;
43787;Laerm;29409;49.306;8.500;2023-12-20T05:34:22;43.47;40.18;49.50;;
43787;Laerm;29409;49.306;8.500;2023-12-20T05:35:22;42.24;39.92;44.56;;
43787;Laerm;29409;49.306;8.500;2023-12-20T05:36:23;41.76;39.92;44.15;;
43787;Laerm;29409;49.306;8.500;2023-12-20T05:37:23;42.65;40.53;47.38;;
43787;Laerm;29409;49.306;8.500;2023-12-20T05:38:23;43.36;40.33;47.48;;
43787;Laerm;29409;49.306;8.500;2023-12-20T05:39:24;43.02;40.33;47.30;;